Map

Track Data

SID SEASON NUMBER BASIN SUBBASIN NAME ISO_TIME NATURE LAT LON WMO_WIND WMO_PRES WMO_AGENCY TRACK_TYPE DIST2LAND LANDFALL IFLAG USA_AGENCY USA_ATCF_ID USA_LAT USA_LON USA_RECORD USA_STATUS USA_WIND USA_PRES USA_SSHS USA_R34_NE USA_R34_SE USA_R34_SW USA_R34_NW USA_R50_NE USA_R50_SE USA_R50_SW USA_R50_NW USA_R64_NE USA_R64_SE USA_R64_SW USA_R64_NW USA_POCI USA_ROCI USA_RMW USA_EYE TOKYO_LAT TOKYO_LON TOKYO_GRADE TOKYO_WIND TOKYO_PRES TOKYO_R50_DIR TOKYO_R50_LONG TOKYO_R50_SHORT TOKYO_R30_DIR TOKYO_R30_LONG TOKYO_R30_SHORT TOKYO_LAND CMA_LAT CMA_LON CMA_CAT CMA_WIND CMA_PRES HKO_LAT HKO_LON HKO_CAT HKO_WIND HKO_PRES NEWDELHI_LAT NEWDELHI_LON NEWDELHI_GRADE NEWDELHI_WIND NEWDELHI_PRES NEWDELHI_CI NEWDELHI_DP NEWDELHI_POCI REUNION_LAT REUNION_LON REUNION_TYPE REUNION_WIND REUNION_PRES REUNION_TNUM REUNION_CI REUNION_RMW REUNION_R34_NE REUNION_R34_SE REUNION_R34_SW REUNION_R34_NW REUNION_R50_NE REUNION_R50_SE REUNION_R50_SW REUNION_R50_NW REUNION_R64_NE REUNION_R64_SE REUNION_R64_SW REUNION_R64_NW BOM_LAT BOM_LON BOM_TYPE BOM_WIND BOM_PRES BOM_TNUM BOM_CI BOM_RMW BOM_R34_NE BOM_R34_SE BOM_R34_SW BOM_R34_NW BOM_R50_NE BOM_R50_SE BOM_R50_SW BOM_R50_NW BOM_R64_NE BOM_R64_SE BOM_R64_SW BOM_R64_NW BOM_ROCI BOM_POCI BOM_EYE BOM_POS_METHOD BOM_PRES_METHOD NADI_LAT NADI_LON NADI_CAT NADI_WIND NADI_PRES WELLINGTON_LAT WELLINGTON_LON WELLINGTON_WIND WELLINGTON_PRES DS824_LAT DS824_LON DS824_STAGE DS824_WIND DS824_PRES TD9636_LAT TD9636_LON TD9636_STAGE TD9636_WIND TD9636_PRES TD9635_LAT TD9635_LON TD9635_WIND TD9635_PRES TD9635_ROCI NEUMANN_LAT NEUMANN_LON NEUMANN_CLASS NEUMANN_WIND NEUMANN_PRES MLC_LAT MLC_LON MLC_CLASS MLC_WIND MLC_PRES USA_GUST BOM_GUST BOM_GUST_PER REUNION_GUST REUNION_GUST_PER USA_SEAHGT USA_SEARAD_NE USA_SEARAD_SE USA_SEARAD_SW USA_SEARAD_NW STORM_SPEED STORM_DIR
1989006S13184 1989 2 SP MM GINA 1989-01-06 06:00:00 TS -13.0000 -175.600 main 308 239 O_________O_O_ jtwc_sh SH051989 -13.0000 -175.600 20 -1 -13.0000 -175.600 1 20 -13.0000 -175.600 TC 20 14 121
1989006S13184 1989 2 SP MM GINA 1989-01-06 09:00:00 TS -13.3584 -174.996 main 238 174 P_________P_P_ SH051989 -13.3577 -175.003 22 -1 -13.3598 -174.983 1 22 -13.3577 -175.003 TC 22 14 121
1989006S13184 1989 2 SP MM GINA 1989-01-06 12:00:00 TS -13.7200 -174.380 30 997 wellington main 174 131 O_______O_O_O_ jtwc_sh SH051989 -13.7000 -174.400 25 -1 -13.9000 -174.200 30 997 -13.7000 -174.400 1 25 -13.7000 -174.400 TC 25 13 120
1989006S13184 1989 2 SP MM GINA 1989-01-06 15:00:00 TS -14.0186 -173.827 main 121 97 P_______P_P_P_ SH051989 -14.0150 -173.805 27 -1 -14.0551 -173.813 31 996 -14.0075 -173.879 1 26 -14.0150 -173.805 TC 27 11 119
1989006S13184 1989 2 SP MM GINA 1989-01-06 18:00:00 TS -14.2801 -173.359 main 102 85 O_______P_P_O_ jtwc_sh SH051989 -14.3000 -173.300 30 -1 -14.2178 -173.431 32 996 -14.2871 -173.423 1 27 -14.3000 -173.300 TC 30 9 122
1989006S13184 1989 2 SP MM GINA 1989-01-06 21:00:00 TS -14.5149 -173.003 main 89 89 P_______P_P_P_ SH051989 -14.5573 -172.962 30 -1 -14.3967 -173.058 33 995 -14.5482 -173.031 1 28 -14.5573 -172.962 TC 30 8 126
1989006S13184 1989 2 SP MM GINA 1989-01-07 00:00:00 TS -14.7500 -172.700 35 995 wellington main 101 101 O_______O_O_O_ jtwc_sh SH051989 -14.8000 -172.700 30 -1 -14.6000 -172.700 35 995 -14.8000 -172.700 1 30 -14.8000 -172.700 TC 30 8 128
1989006S13184 1989 2 SP MM GINA 1989-01-07 03:00:00 TS -14.9958 -172.378 main 134 134 P_______P_P_P_ SH051989 -15.0500 -172.378 32 -1 -14.8345 -172.368 37 992 -15.0487 -172.389 1 32 -15.0500 -172.378 TC 32 8 131
1989006S13184 1989 2 SP MM GINA 1989-01-07 06:00:00 TS -15.2480 -172.109 40 990 wellington main 157 157 O_______O_P_O_ jtwc_sh SH051989 -15.3000 -172.100 35 0 -15.1000 -172.100 40 990 -15.2921 -172.137 1 35 -15.3000 -172.100 TC 35 7 139
1989006S13184 1989 2 SP MM GINA 1989-01-07 09:00:00 TS -15.5042 -171.922 main 193 193 P_______P_P_P_ SH051989 -15.5425 -171.912 37 0 -15.3924 -171.920 40 990 -15.5395 -171.942 1 37 -15.5425 -171.912 TC 37 6 151
1989006S13184 1989 2 SP MM GINA 1989-01-07 12:00:00 TS -15.7750 -171.800 40 990 wellington main 227 227 O_______O_O_O_ jtwc_sh SH051989 -15.8000 -171.800 40 0 -15.7000 -171.800 40 990 -15.8000 -171.800 2 40 -15.8000 -171.800 TC 40 6 161
1989006S13184 1989 2 SP MM GINA 1989-01-07 15:00:00 TS -16.0695 -171.717 main 263 263 P_______P_P_P_ SH051989 -16.0925 -171.735 40 0 -16.0075 -171.685 42 988 -16.0855 -171.711 2 41 -16.0925 -171.735 TC 40 6 168
1989006S13184 1989 2 SP MM GINA 1989-01-07 18:00:00 TS -16.3712 -171.667 45 987 wellington main 295 295 O_______O_P_O_ jtwc_sh SH051989 -16.4000 -171.700 40 0 -16.3000 -171.600 45 987 -16.3848 -171.669 2 42 -16.4000 -171.700 TC 40 6 172
1989006S13184 1989 2 SP MM GINA 1989-01-07 21:00:00 TS -16.6567 -171.623 main 330 330 P_______P_P_P_ SH051989 -16.7000 -171.657 42 0 -16.5350 -171.535 45 987 -16.6917 -171.643 2 43 -16.7000 -171.657 TC 42 6 171
1989006S13184 1989 2 SP MM GINA 1989-01-08 00:00:00 TS -16.9500 -171.575 45 987 wellington main 352 363 O_______O_O_O_ jtwc_sh SH051989 -17.0000 -171.600 45 0 -16.8000 -171.500 45 987 -17.0000 -171.600 2 45 -17.0000 -171.600 TC 45 6 169
1989006S13184 1989 2 SP MM GINA 1989-01-08 03:00:00 TS -17.2750 -171.492 main 398 398 P_______P_P_P_ SH051989 -17.3000 -171.515 45 0 -17.2000 -171.492 45 987 -17.3001 -171.444 2 43 -17.3000 -171.515 TC 45 7 165
1989006S13184 1989 2 SP MM GINA 1989-01-08 06:00:00 TS -17.6000 -171.394 45 987 wellington main 433 433 O_______O_P_O_ jtwc_sh SH051989 -17.6000 -171.400 45 0 -17.6000 -171.500 45 987 -17.6001 -171.276 2 42 -17.6000 -171.400 TC 45 7 161
1989006S13184 1989 2 SP MM GINA 1989-01-08 09:00:00 TS -17.8875 -171.275 main 468 468 P_______P_P_P_ SH051989 -17.8925 -171.235 42 0 -17.8650 -171.485 42 988 -17.9000 -171.145 2 41 -17.8925 -171.235 TC 42 6 162
1989006S13184 1989 2 SP MM GINA 1989-01-08 12:00:00 TS -18.1750 -171.200 40 990 wellington main 503 503 O_______O_O_O_ jtwc_sh SH051989 -18.2000 -171.100 40 0 -18.1000 -171.500 40 990 -18.2000 -171.100 2 40 -18.2000 -171.100 TC 40 6 173
1989006S13184 1989 2 SP MM GINA 1989-01-08 15:00:00 TS -18.5115 -171.193 main 536 536 P_______P_P_P_ SH051989 -18.5573 -171.018 40 0 -18.4075 -171.577 40 990 -18.5239 -171.157 2 38 -18.5573 -171.018 TC 40 7 188
1989006S13184 1989 2 SP MM GINA 1989-01-08 18:00:00 TS -18.8361 -171.303 40 990 wellington main 567 567 O_______O_P_O_ jtwc_sh SH051989 -18.9000 -171.100 40 0 -18.7000 -171.700 40 990 -18.8442 -171.312 2 37 -18.9000 -171.100 TC 40 7 210
1989006S13184 1989 2 SP MM GINA 1989-01-08 21:00:00 TS -19.0988 -171.556 main 596 596 P_______P_P_P_ SH051989 -19.1801 -171.432 37 0 -18.8923 -171.798 37 992 -19.1425 -171.561 2 36 -19.1801 -171.432 TC 37 8 230
1989006S13184 1989 2 SP MM GINA 1989-01-09 00:00:00 TS -19.3250 -171.925 35 995 wellington main 616 615 O_______O_O_O_ jtwc_sh SH051989 -19.4000 -171.900 35 0 -19.1000 -172.000 35 995 -19.4000 -171.900 2 35 -19.4000 -171.900 TC 35 9 239
1989006S13184 1989 2 SP MM GINA 1989-01-09 03:00:00 TS -19.5363 -172.337 main 637 637 P_______P_P_P_ SH051989 -19.5648 -172.328 35 0 -19.4426 -172.397 32 996 -19.5729 -172.294 2 33 -19.5648 -172.328 TC 35 9 244
1989006S13184 1989 2 SP MM GINA 1989-01-09 06:00:00 TS -19.7269 -172.819 30 997 wellington main 660 660 O_______O_P_O_ jtwc_sh SH051989 -19.7000 -172.800 35 0 -19.8000 -172.900 30 997 -19.7074 -172.774 2 32 -19.7000 -172.800 TC 35 10 249
1989006S13184 1989 2 SP MM GINA 1989-01-09 09:00:00 TS -19.8895 -173.339 main 686 686 P_______P_P_P_ SH051989 -19.8349 -173.328 32 -1 -20.0499 -173.385 30 997 -19.8382 -173.317 2 31 -19.8349 -173.328 TC 32 11 252
1989006S13184 1989 2 SP MM GINA 1989-01-09 12:00:00 TS -20.0600 -173.900 30 997 wellington main 718 708 O_______O_O_O_ jtwc_sh SH051989 -20.0000 -173.900 30 -1 -20.3000 -173.900 30 997 -20.0000 -173.900 1 30 -20.0000 -173.900 TC 30 11 250
1989006S13184 1989 2 SP MM GINA 1989-01-09 15:00:00 TS -20.2818 -174.485 main 708 669 P_______P_P_P_ SH051989 -20.2273 -174.485 27 -1 -20.6254 -174.442 30 997 -20.2189 -174.506 1 28 -20.2273 -174.485 TC 27 12 247
1989006S13184 1989 2 SP MM GINA 1989-01-09 18:00:00 TS -20.5460 -175.098 30 997 wellington main 669 643 O_______O_P_O_ jtwc_sh SH051989 -20.5000 -175.100 25 -1 -21.0000 -175.000 30 997 -20.4867 -175.127 1 27 -20.5000 -175.100 TC 25 13 247
1989006S13184 1989 2 SP MM GINA 1989-01-09 21:00:00 TS -20.7924 -175.748 main 643 613 P_________P_P_ SH051989 -20.7955 -175.742 25 -1 -20.7861 -175.760 1 26 -20.7955 -175.742 TC 25 13 246
1989006S13184 1989 2 SP MM GINA 1989-01-10 00:00:00 TS -21.1000 -176.400 main 613 O_________O_O_ jtwc_sh SH051989 -21.1000 -176.400 25 -1 -21.1000 -176.400 1 25 -21.1000 -176.400 TC 25 14 243

Digital Typhoon Data and Search

About IBTrACS Database

This database is a web-friendly format of International Best Track Archive for Climate Stewardship (IBTrACS), a global best track data archive curated by NOAA dating back to 1842.

Updated: 2021-10-19